sensor_id;sensor_type;location;lat;lon;timestamp;temperature;humidity
1602;DHT22;794;48.592;9.634;2022-12-29T00:00:53;6.70;1.00
1602;DHT22;794;48.592;9.634;2022-12-29T00:03:20;6.90;1.00
1602;DHT22;794;48.592;9.634;2022-12-29T00:05:55;8.00;1.00
1602;DHT22;794;48.592;9.634;2022-12-29T00:08:22;7.60;1.00
1602;DHT22;794;48.592;9.634;2022-12-29T00:11:05;7.00;1.00
1602;DHT22;794;48.592;9.634;2022-12-29T00:13:32;7.20;1.00
1602;DHT22;794;48.592;9.634;2022-12-29T00:16:16;7.50;1.00
1602;DHT22;794;48.592;9.634;2022-12-29T00:18:43;7.80;1.00
1602;DHT22;794;48.592;9.634;2022-12-29T00:21:13;7.70;1.00
1602;DHT22;794;48.592;9.634;2022-12-29T00:23:57;7.20;1.00
1602;DHT22;794;48.592;9.634;2022-12-29T00:26:47;7.50;1.00
1602;DHT22;794;48.592;9.634;2022-12-29T00:29:32;7.10;1.00
1602;DHT22;794;48.592;9.634;2022-12-29T00:32:16;7.20;1.00
1602;DHT22;794;48.592;9.634;2022-12-29T00:35:00;7.20;1.00
1602;DHT22;794;48.592;9.634;2022-12-29T00:37:40;7.10;1.00
1602;DHT22;794;48.592;9.634;2022-12-29T00:40:26;7.30;1.00
1602;DHT22;794;48.592;9.634;2022-12-29T00:43:10;7.30;1.00
1602;DHT22;794;48.592;9.634;2022-12-29T00:45:55;7.50;1.00
1602;DHT22;794;48.592;9.634;2022-12-29T00:48:22;7.20;1.00
1602;DHT22;794;48.592;9.634;2022-12-29T00:51:03;7.60;1.00
1602;DHT22;794;48.592;9.634;2022-12-29T00:53:31;7.90;1.00
1602;DHT22;794;48.592;9.634;2022-12-29T00:55:58;7.50;1.00
1602;DHT22;794;48.592;9.634;2022-12-29T00:58:27;8.00;1.00
1602;DHT22;794;48.592;9.634;2022-12-29T01:01:01;8.10;1.00
1602;DHT22;794;48.592;9.634;2022-12-29T01:03:28;8.50;1.00
1602;DHT22;794;48.592;9.634;2022-12-29T01:05:55;8.40;1.00
1602;DHT22;794;48.592;9.634;2022-12-29T01:08:22;8.80;1.00
1602;DHT22;794;48.592;9.634;2022-12-29T01:10:59;8.50;1.00
1602;DHT22;794;48.592;9.634;2022-12-29T01:13:25;8.50;1.00
1602;DHT22;794;48.592;9.634;2022-12-29T01:15:53;9.80;1.00
1602;DHT22;794;48.592;9.634;2022-12-29T01:18:20;8.20;1.00
1602;DHT22;794;48.592;9.634;2022-12-29T01:20:48;8.40;1.00
1602;DHT22;794;48.592;9.634;2022-12-29T01:23:15;8.50;1.00
1602;DHT22;794;48.592;9.634;2022-12-29T01:25:42;8.90;1.00
1602;DHT22;794;48.592;9.634;2022-12-29T01:28:10;8.70;1.00
1602;DHT22;794;48.592;9.634;2022-12-29T01:30:37;8.60;1.00
1602;DHT22;794;48.592;9.634;2022-12-29T01:33:04;8.90;1.00
1602;DHT22;794;48.592;9.634;2022-12-29T01:35:31;8.70;1.00
1602;DHT22;794;48.592;9.634;2022-12-29T01:37:58;8.50;1.00
1602;DHT22;794;48.592;9.634;2022-12-29T01:40:25;8.90;1.00
1602;DHT22;794;48.592;9.634;2022-12-29T01:42:52;9.10;1.00
1602;DHT22;794;48.592;9.634;2022-12-29T01:45:21;9.20;1.00
1602;DHT22;794;48.592;9.634;2022-12-29T01:47:50;8.80;1.00
1602;DHT22;794;48.592;9.634;2022-12-29T01:50:22;9.30;1.00
1602;DHT22;794;48.592;9.634;2022-12-29T01:52:54;9.00;1.00
1602;DHT22;794;48.592;9.634;2022-12-29T01:55:23;9.40;1.00
1602;DHT22;794;48.592;9.634;2022-12-29T01:57:52;9.00;1.00
1602;DHT22;794;48.592;9.634;2022-12-29T02:00:21;9.50;1.00
1602;DHT22;794;48.592;9.634;2022-12-29T02:02:51;9.50;1.00
1602;DHT22;794;48.592;9.634;2022-12-29T02:05:25;9.20;1.00
1602;DHT22;794;48.592;9.634;2022-12-29T02:07:54;9.40;1.00
1602;DHT22;794;48.592;9.634;2022-12-29T02:10:22;9.40;1.00
1602;DHT22;794;48.592;9.634;2022-12-29T02:12:50;9.50;1.00
1602;DHT22;794;48.592;9.634;2022-12-29T02:15:18;9.60;1.00
1602;DHT22;794;48.592;9.634;2022-12-29T02:18:02;9.50;1.00
1602;DHT22;794;48.592;9.634;2022-12-29T02:23:56;9.30;1.00
1602;DHT22;794;48.592;9.634;2022-12-29T02:29:43;9.10;1.00
1602;DHT22;794;48.592;9.634;2022-12-29T02:32:26;9.40;1.00
1602;DHT22;794;48.592;9.634;2022-12-29T02:34:58;8.80;1.00
1602;DHT22;794;48.592;9.634;2022-12-29T02:37:32;9.00;1.00
1602;DHT22;794;48.592;9.634;2022-12-29T02:40:07;9.00;1.00
1602;DHT22;794;48.592;9.634;2022-12-29T02:42:43;9.20;1.00
1602;DHT22;794;48.592;9.634;2022-12-29T02:45:18;9.20;1.00
1602;DHT22;794;48.592;9.634;2022-12-29T02:47:51;9.20;1.00
1602;DHT22;794;48.592;9.634;2022-12-29T02:50:23;9.00;1.00
1602;DHT22;794;48.592;9.634;2022-12-29T02:52:54;8.80;1.00
1602;DHT22;794;48.592;9.634;2022-12-29T02:55:23;8.50;1.00
1602;DHT22;794;48.592;9.634;2022-12-29T02:58:15;9.10;1.00
1602;DHT22;794;48.592;9.634;2022-12-29T03:00:53;8.90;1.00
1602;DHT22;794;48.592;9.634;2022-12-29T03:03:31;9.00;1.00
1602;DHT22;794;48.592;9.634;2022-12-29T03:06:30;8.40;1.00
1602;DHT22;794;48.592;9.634;2022-12-29T03:09:05;8.00;1.00
1602;DHT22;794;48.592;9.634;2022-12-29T03:11:43;8.40;1.00
1602;DHT22;794;48.592;9.634;2022-12-29T03:14:33;8.70;1.00
1602;DHT22;794;48.592;9.634;2022-12-29T03:17:24;8.00;1.00
1602;DHT22;794;48.592;9.634;2022-12-29T03:19:59;7.90;1.00
1602;DHT22;794;48.592;9.634;2022-12-29T03:22:30;8.00;1.00
1602;DHT22;794;48.592;9.634;2022-12-29T03:25:01;8.20;1.00
1602;DHT22;794;48.592;9.634;2022-12-29T03:27:31;7.80;1.00
1602;DHT22;794;48.592;9.634;2022-12-29T03:30:01;8.10;1.00
1602;DHT22;794;48.592;9.634;2022-12-29T03:32:31;7.80;1.00
1602;DHT22;794;48.592;9.634;2022-12-29T03:35:00;8.10;1.00
1602;DHT22;794;48.592;9.634;2022-12-29T03:37:31;8.10;1.00
1602;DHT22;794;48.592;9.634;2022-12-29T03:40:00;7.80;1.00
1602;DHT22;794;48.592;9.634;2022-12-29T03:42:28;8.20;1.00
1602;DHT22;794;48.592;9.634;2022-12-29T03:44:57;8.10;1.00
1602;DHT22;794;48.592;9.634;2022-12-29T03:47:24;8.10;1.00
1602;DHT22;794;48.592;9.634;2022-12-29T03:49:53;7.80;1.00
1602;DHT22;794;48.592;9.634;2022-12-29T03:52:21;7.60;1.00
1602;DHT22;794;48.592;9.634;2022-12-29T03:54:48;7.80;1.00
1602;DHT22;794;48.592;9.634;2022-12-29T03:57:15;8.10;1.00
1602;DHT22;794;48.592;9.634;2022-12-29T03:59:42;7.70;1.00
1602;DHT22;794;48.592;9.634;2022-12-29T04:02:09;8.00;1.00
1602;DHT22;794;48.592;9.634;2022-12-29T04:04:36;7.80;1.00
1602;DHT22;794;48.592;9.634;2022-12-29T04:07:02;8.10;1.00
1602;DHT22;794;48.592;9.634;2022-12-29T04:09:31;8.10;1.00
1602;DHT22;794;48.592;9.634;2022-12-29T04:11:58;7.70;1.00
1602;DHT22;794;48.592;9.634;2022-12-29T04:14:25;7.70;1.00
1602;DHT22;794;48.592;9.634;2022-12-29T04:16:51;7.60;1.00
1602;DHT22;794;48.592;9.634;2022-12-29T04:19:18;7.90;1.00
1602;DHT22;794;48.592;9.634;2022-12-29T04:21:45;8.00;1.00
1602;DHT22;794;48.592;9.634;2022-12-29T04:24:13;8.00;1.00
1602;DHT22;794;48.592;9.634;2022-12-29T04:26:41;7.60;1.00
1602;DHT22;794;48.592;9.634;2022-12-29T04:29:09;7.80;1.00
1602;DHT22;794;48.592;9.634;2022-12-29T04:31:35;7.30;1.00
1602;DHT22;794;48.592;9.634;2022-12-29T04:34:02;7.30;1.00
1602;DHT22;794;48.592;9.634;2022-12-29T04:36:29;6.90;1.00
1602;DHT22;794;48.592;9.634;2022-12-29T04:38:57;6.90;1.00
1602;DHT22;794;48.592;9.634;2022-12-29T04:41:24;6.70;1.00
1602;DHT22;794;48.592;9.634;2022-12-29T04:43:53;6.90;1.00
1602;DHT22;794;48.592;9.634;2022-12-29T04:46:19;6.70;1.00
1602;DHT22;794;48.592;9.634;2022-12-29T04:48:46;7.00;1.00
1602;DHT22;794;48.592;9.634;2022-12-29T04:51:13;6.50;1.00
1602;DHT22;794;48.592;9.634;2022-12-29T04:53:40;6.80;1.00
1602;DHT22;794;48.592;9.634;2022-12-29T04:56:08;6.70;1.00
1602;DHT22;794;48.592;9.634;2022-12-29T04:58:36;6.80;1.00
1602;DHT22;794;48.592;9.634;2022-12-29T05:01:04;6.30;1.00
1602;DHT22;794;48.592;9.634;2022-12-29T05:03:31;6.80;1.00
1602;DHT22;794;48.592;9.634;2022-12-29T05:05:58;6.50;1.00
1602;DHT22;794;48.592;9.634;2022-12-29T05:08:25;6.80;1.00
1602;DHT22;794;48.592;9.634;2022-12-29T05:10:52;6.80;1.00
1602;DHT22;794;48.592;9.634;2022-12-29T05:13:19;6.50;1.00
1602;DHT22;794;48.592;9.634;2022-12-29T05:15:47;7.60;1.00
1602;DHT22;794;48.592;9.634;2022-12-29T05:18:17;6.10;1.00
1602;DHT22;794;48.592;9.634;2022-12-29T05:20:44;6.60;1.00
1602;DHT22;794;48.592;9.634;2022-12-29T05:23:11;6.70;1.00
1602;DHT22;794;48.592;9.634;2022-12-29T05:25:38;6.60;1.00
1602;DHT22;794;48.592;9.634;2022-12-29T05:28:05;6.20;1.00
1602;DHT22;794;48.592;9.634;2022-12-29T05:30:32;6.40;1.00
1602;DHT22;794;48.592;9.634;2022-12-29T05:32:59;6.30;1.00
1602;DHT22;794;48.592;9.634;2022-12-29T05:35:27;6.40;1.00
1602;DHT22;794;48.592;9.634;2022-12-29T05:37:54;6.30;1.00
1602;DHT22;794;48.592;9.634;2022-12-29T05:40:21;6.40;1.00
1602;DHT22;794;48.592;9.634;2022-12-29T05:42:48;6.50;1.00
1602;DHT22;794;48.592;9.634;2022-12-29T05:45:15;6.50;1.00
1602;DHT22;794;48.592;9.634;2022-12-29T05:47:42;6.90;1.00
1602;DHT22;794;48.592;9.634;2022-12-29T05:50:09;6.80;1.00
1602;DHT22;794;48.592;9.634;2022-12-29T05:52:37;7.00;1.00
1602;DHT22;794;48.592;9.634;2022-12-29T05:55:05;7.00;1.00
1602;DHT22;794;48.592;9.634;2022-12-29T05:57:32;7.10;1.00
1602;DHT22;794;48.592;9.634;2022-12-29T05:59:59;7.20;1.00
1602;DHT22;794;48.592;9.634;2022-12-29T06:02:26;7.10;1.00
1602;DHT22;794;48.592;9.634;2022-12-29T06:04:53;6.40;1.00
1602;DHT22;794;48.592;9.634;2022-12-29T06:07:20;6.30;1.00
1602;DHT22;794;48.592;9.634;2022-12-29T06:09:48;6.60;1.00
1602;DHT22;794;48.592;9.634;2022-12-29T06:12:15;6.60;1.00
1602;DHT22;794;48.592;9.634;2022-12-29T06:14:42;6.30;1.00
1602;DHT22;794;48.592;9.634;2022-12-29T06:17:09;6.50;1.00
1602;DHT22;794;48.592;9.634;2022-12-29T06:19:36;6.20;1.00
1602;DHT22;794;48.592;9.634;2022-12-29T06:22:03;6.20;1.00
1602;DHT22;794;48.592;9.634;2022-12-29T06:24:30;6.20;1.00
1602;DHT22;794;48.592;9.634;2022-12-29T06:26:58;6.30;1.00
1602;DHT22;794;48.592;9.634;2022-12-29T06:29:25;6.70;1.00
1602;DHT22;794;48.592;9.634;2022-12-29T06:31:53;5.90;1.00
1602;DHT22;794;48.592;9.634;2022-12-29T06:34:23;5.80;1.00
1602;DHT22;794;48.592;9.634;2022-12-29T06:36:50;5.70;1.00
1602;DHT22;794;48.592;9.634;2022-12-29T06:39:17;5.50;1.00
1602;DHT22;794;48.592;9.634;2022-12-29T06:41:44;6.50;1.00
1602;DHT22;794;48.592;9.634;2022-12-29T06:44:12;6.80;1.00
1602;DHT22;794;48.592;9.634;2022-12-29T06:46:39;5.20;1.00
1602;DHT22;794;48.592;9.634;2022-12-29T06:49:06;5.50;1.00
1602;DHT22;794;48.592;9.634;2022-12-29T06:51:33;6.90;1.00
1602;DHT22;794;48.592;9.634;2022-12-29T06:54:00;7.70;1.00
1602;DHT22;794;48.592;9.634;2022-12-29T06:56:26;5.40;1.00
1602;DHT22;794;48.592;9.634;2022-12-29T06:58:53;6.10;1.00
1602;DHT22;794;48.592;9.634;2022-12-29T07:01:22;5.30;1.00
1602;DHT22;794;48.592;9.634;2022-12-29T07:03:49;7.10;1.00
1602;DHT22;794;48.592;9.634;2022-12-29T07:06:16;6.00;1.00
1602;DHT22;794;48.592;9.634;2022-12-29T07:08:42;5.40;1.00
1602;DHT22;794;48.592;9.634;2022-12-29T07:11:09;5.50;1.00
1602;DHT22;794;48.592;9.634;2022-12-29T07:13:36;5.20;1.00
1602;DHT22;794;48.592;9.634;2022-12-29T07:16:07;5.20;1.00
1602;DHT22;794;48.592;9.634;2022-12-29T07:18:35;5.50;1.00
1602;DHT22;794;48.592;9.634;2022-12-29T07:21:03;5.30;1.00
1602;DHT22;794;48.592;9.634;2022-12-29T07:23:30;5.70;1.00
1602;DHT22;794;48.592;9.634;2022-12-29T07:26:01;6.50;1.00
1602;DHT22;794;48.592;9.634;2022-12-29T07:28:28;5.50;1.00
1602;DHT22;794;48.592;9.634;2022-12-29T07:30:55;5.70;1.00
1602;DHT22;794;48.592;9.634;2022-12-29T07:33:22;5.50;1.00
1602;DHT22;794;48.592;9.634;2022-12-29T07:35:50;5.40;1.00
1602;DHT22;794;48.592;9.634;2022-12-29T07:38:17;5.60;1.00
1602;DHT22;794;48.592;9.634;2022-12-29T07:40:44;5.40;1.00
1602;DHT22;794;48.592;9.634;2022-12-29T07:43:11;5.40;1.00
1602;DHT22;794;48.592;9.634;2022-12-29T07:45:38;6.00;1.00
1602;DHT22;794;48.592;9.634;2022-12-29T07:48:06;6.10;1.00
1602;DHT22;794;48.592;9.634;2022-12-29T07:50:34;5.90;1.00
1602;DHT22;794;48.592;9.634;2022-12-29T07:53:02;6.10;1.00
1602;DHT22;794;48.592;9.634;2022-12-29T07:55:30;6.70;1.00
1602;DHT22;794;48.592;9.634;2022-12-29T07:57:57;7.60;1.00
1602;DHT22;794;48.592;9.634;2022-12-29T08:00:24;6.80;1.00
1602;DHT22;794;48.592;9.634;2022-12-29T08:02:51;7.40;1.00
1602;DHT22;794;48.592;9.634;2022-12-29T08:05:18;7.20;1.00
1602;DHT22;794;48.592;9.634;2022-12-29T08:07:46;7.50;1.00
1602;DHT22;794;48.592;9.634;2022-12-29T08:10:14;7.70;1.00
1602;DHT22;794;48.592;9.634;2022-12-29T08:12:42;7.80;1.00
1602;DHT22;794;48.592;9.634;2022-12-29T08:15:10;8.80;1.00
1602;DHT22;794;48.592;9.634;2022-12-29T08:17:37;8.00;1.00
1602;DHT22;794;48.592;9.634;2022-12-29T08:20:05;8.20;1.00
1602;DHT22;794;48.592;9.634;2022-12-29T08:22:32;8.10;1.00
1602;DHT22;794;48.592;9.634;2022-12-29T08:24:59;8.60;1.00
1602;DHT22;794;48.592;9.634;2022-12-29T08:27:27;8.60;1.00
1602;DHT22;794;48.592;9.634;2022-12-29T08:29:54;8.80;1.00
1602;DHT22;794;48.592;9.634;2022-12-29T08:32:21;8.60;1.00
1602;DHT22;794;48.592;9.634;2022-12-29T08:34:48;9.00;1.00
1602;DHT22;794;48.592;9.634;2022-12-29T08:37:15;8.60;1.00
1602;DHT22;794;48.592;9.634;2022-12-29T08:39:42;8.90;1.00
1602;DHT22;794;48.592;9.634;2022-12-29T08:42:09;8.90;1.00
1602;DHT22;794;48.592;9.634;2022-12-29T08:44:37;9.30;1.00
1602;DHT22;794;48.592;9.634;2022-12-29T08:47:04;9.60;1.00
1602;DHT22;794;48.592;9.634;2022-12-29T08:49:31;7.50;1.00
1602;DHT22;794;48.592;9.634;2022-12-29T08:51:58;9.80;1.00
1602;DHT22;794;48.592;9.634;2022-12-29T08:54:26;10.00;1.00
1602;DHT22;794;48.592;9.634;2022-12-29T08:56:52;9.80;1.00
1602;DHT22;794;48.592;9.634;2022-12-29T08:59:20;9.90;1.00
1602;DHT22;794;48.592;9.634;2022-12-29T09:01:48;10.00;1.00
1602;DHT22;794;48.592;9.634;2022-12-29T09:04:15;10.50;1.00
1602;DHT22;794;48.592;9.634;2022-12-29T09:06:43;10.50;1.00
1602;DHT22;794;48.592;9.634;2022-12-29T09:09:10;10.50;1.00
1602;DHT22;794;48.592;9.634;2022-12-29T09:11:37;10.50;1.00
1602;DHT22;794;48.592;9.634;2022-12-29T09:14:04;10.60;1.00
1602;DHT22;794;48.592;9.634;2022-12-29T09:16:31;10.50;1.00
1602;DHT22;794;48.592;9.634;2022-12-29T09:18:59;10.30;1.00
1602;DHT22;794;48.592;9.634;2022-12-29T09:21:26;10.70;1.00
1602;DHT22;794;48.592;9.634;2022-12-29T09:23:53;10.40;1.00
1602;DHT22;794;48.592;9.634;2022-12-29T09:26:20;10.90;1.00
1602;DHT22;794;48.592;9.634;2022-12-29T09:28:47;10.80;1.00
1602;DHT22;794;48.592;9.634;2022-12-29T09:31:14;10.50;1.00
1602;DHT22;794;48.592;9.634;2022-12-29T09:33:41;10.80;1.00
1602;DHT22;794;48.592;9.634;2022-12-29T09:36:10;11.10;1.00
1602;DHT22;794;48.592;9.634;2022-12-29T09:38:36;10.70;1.00
1602;DHT22;794;48.592;9.634;2022-12-29T09:41:11;10.60;1.00
1602;DHT22;794;48.592;9.634;2022-12-29T09:46:36;11.30;1.00
1602;DHT22;794;48.592;9.634;2022-12-29T09:49:12;11.10;1.00
1602;DHT22;794;48.592;9.634;2022-12-29T09:51:44;11.20;1.00
1602;DHT22;794;48.592;9.634;2022-12-29T09:54:41;11.20;1.00
1602;DHT22;794;48.592;9.634;2022-12-29T09:57:21;11.50;1.00
1602;DHT22;794;48.592;9.634;2022-12-29T09:59:54;10.90;1.00
1602;DHT22;794;48.592;9.634;2022-12-29T10:02:36;10.50;1.00
1602;DHT22;794;48.592;9.634;2022-12-29T10:05:17;10.70;1.00
1602;DHT22;794;48.592;9.634;2022-12-29T10:07:52;10.70;1.00
1602;DHT22;794;48.592;9.634;2022-12-29T10:10:31;10.50;1.00
1602;DHT22;794;48.592;9.634;2022-12-29T10:13:16;10.60;1.00
1602;DHT22;794;48.592;9.634;2022-12-29T10:15:56;10.60;1.00
1602;DHT22;794;48.592;9.634;2022-12-29T10:18:33;10.80;1.00
1602;DHT22;794;48.592;9.634;2022-12-29T10:21:08;10.90;1.00
1602;DHT22;794;48.592;9.634;2022-12-29T10:23:43;10.80;1.00
1602;DHT22;794;48.592;9.634;2022-12-29T10:26:16;10.90;1.00
1602;DHT22;794;48.592;9.634;2022-12-29T10:28:47;10.70;1.00
1602;DHT22;794;48.592;9.634;2022-12-29T10:31:18;11.10;1.00
1602;DHT22;794;48.592;9.634;2022-12-29T10:33:49;11.10;1.00
1602;DHT22;794;48.592;9.634;2022-12-29T10:36:20;10.80;1.00
1602;DHT22;794;48.592;9.634;2022-12-29T10:39:02;11.40;1.00
1602;DHT22;794;48.592;9.634;2022-12-29T10:41:36;11.10;1.00
1602;DHT22;794;48.592;9.634;2022-12-29T10:44:06;11.20;1.00
1602;DHT22;794;48.592;9.634;2022-12-29T10:46:36;10.80;1.00
1602;DHT22;794;48.592;9.634;2022-12-29T10:49:04;10.80;1.00
1602;DHT22;794;48.592;9.634;2022-12-29T10:51:35;10.70;1.00
1602;DHT22;794;48.592;9.634;2022-12-29T10:54:10;10.50;1.00
1602;DHT22;794;48.592;9.634;2022-12-29T10:56:40;10.50;1.00
1602;DHT22;794;48.592;9.634;2022-12-29T10:59:16;10.80;1.00
1602;DHT22;794;48.592;9.634;2022-12-29T11:01:53;10.60;1.00
1602;DHT22;794;48.592;9.634;2022-12-29T11:04:35;10.70;1.00
1602;DHT22;794;48.592;9.634;2022-12-29T11:07:07;10.30;1.00
1602;DHT22;794;48.592;9.634;2022-12-29T11:09:38;10.50;1.00
1602;DHT22;794;48.592;9.634;2022-12-29T11:12:22;10.50;1.00
1602;DHT22;794;48.592;9.634;2022-12-29T11:15:02;10.60;1.00
1602;DHT22;794;48.592;9.634;2022-12-29T11:17:29;10.70;1.00
1602;DHT22;794;48.592;9.634;2022-12-29T11:19:56;10.50;1.00
1602;DHT22;794;48.592;9.634;2022-12-29T11:22:25;10.60;1.00
1602;DHT22;794;48.592;9.634;2022-12-29T11:24:54;10.70;1.00
1602;DHT22;794;48.592;9.634;2022-12-29T11:27:31;11.00;1.00
1602;DHT22;794;48.592;9.634;2022-12-29T11:29:58;10.40;1.00
1602;DHT22;794;48.592;9.634;2022-12-29T11:32:27;10.70;1.00
1602;DHT22;794;48.592;9.634;2022-12-29T11:34:56;10.70;1.00
1602;DHT22;794;48.592;9.634;2022-12-29T11:37:29;10.80;1.00
1602;DHT22;794;48.592;9.634;2022-12-29T11:39:59;11.10;1.00
1602;DHT22;794;48.592;9.634;2022-12-29T11:42:33;11.00;1.00
1602;DHT22;794;48.592;9.634;2022-12-29T11:45:06;11.30;1.00
1602;DHT22;794;48.592;9.634;2022-12-29T11:47:36;11.80;1.00
1602;DHT22;794;48.592;9.634;2022-12-29T11:50:05;11.40;1.00
1602;DHT22;794;48.592;9.634;2022-12-29T11:52:35;11.50;1.00
1602;DHT22;794;48.592;9.634;2022-12-29T11:55:17;11.30;1.00
1602;DHT22;794;48.592;9.634;2022-12-29T11:57:45;11.30;1.00
1602;DHT22;794;48.592;9.634;2022-12-29T12:00:17;10.10;1.00
1602;DHT22;794;48.592;9.634;2022-12-29T12:02:50;11.20;1.00
1602;DHT22;794;48.592;9.634;2022-12-29T12:05:23;11.40;1.00
1602;DHT22;794;48.592;9.634;2022-12-29T12:07:56;11.50;1.00
1602;DHT22;794;48.592;9.634;2022-12-29T12:10:29;11.50;1.00
1602;DHT22;794;48.592;9.634;2022-12-29T12:13:02;11.60;1.00
1602;DHT22;794;48.592;9.634;2022-12-29T12:15:35;11.80;1.00
1602;DHT22;794;48.592;9.634;2022-12-29T12:18:08;11.50;1.00
1602;DHT22;794;48.592;9.634;2022-12-29T12:20:42;11.80;1.00
1602;DHT22;794;48.592;9.634;2022-12-29T12:23:18;11.90;1.00
1602;DHT22;794;48.592;9.634;2022-12-29T12:25:54;11.50;1.00
1602;DHT22;794;48.592;9.634;2022-12-29T12:28:28;11.70;1.00
1602;DHT22;794;48.592;9.634;2022-12-29T12:30:58;11.40;1.00
1602;DHT22;794;48.592;9.634;2022-12-29T12:33:31;11.50;1.00
1602;DHT22;794;48.592;9.634;2022-12-29T12:36:18;11.40;1.00
1602;DHT22;794;48.592;9.634;2022-12-29T12:38:54;11.50;1.00
1602;DHT22;794;48.592;9.634;2022-12-29T12:41:32;11.20;1.00
1602;DHT22;794;48.592;9.634;2022-12-29T12:44:11;11.20;1.00
1602;DHT22;794;48.592;9.634;2022-12-29T12:47:04;11.50;1.00
1602;DHT22;794;48.592;9.634;2022-12-29T12:50:02;11.10;1.00
1602;DHT22;794;48.592;9.634;2022-12-29T12:52:40;11.10;1.00
1602;DHT22;794;48.592;9.634;2022-12-29T12:55:30;11.10;1.00
1602;DHT22;794;48.592;9.634;2022-12-29T12:58:07;10.80;1.00
1602;DHT22;794;48.592;9.634;2022-12-29T13:00:46;11.10;1.00
1602;DHT22;794;48.592;9.634;2022-12-29T13:03:47;10.60;1.00
1602;DHT22;794;48.592;9.634;2022-12-29T13:06:25;10.80;1.00
1602;DHT22;794;48.592;9.634;2022-12-29T13:09:03;10.90;1.00
1602;DHT22;794;48.592;9.634;2022-12-29T13:11:44;11.10;1.00
1602;DHT22;794;48.592;9.634;2022-12-29T13:14:24;10.60;1.00
1602;DHT22;794;48.592;9.634;2022-12-29T13:16:56;11.10;1.00
1602;DHT22;794;48.592;9.634;2022-12-29T13:19:32;11.00;1.00
1602;DHT22;794;48.592;9.634;2022-12-29T13:22:05;11.30;1.00
1602;DHT22;794;48.592;9.634;2022-12-29T13:24:50;11.00;1.00
1602;DHT22;794;48.592;9.634;2022-12-29T13:27:26;11.50;1.00
1602;DHT22;794;48.592;9.634;2022-12-29T13:30:01;11.20;1.00
1602;DHT22;794;48.592;9.634;2022-12-29T13:32:39;11.20;1.00
1602;DHT22;794;48.592;9.634;2022-12-29T13:35:32;11.40;1.00
1602;DHT22;794;48.592;9.634;2022-12-29T13:38:09;11.10;1.00
1602;DHT22;794;48.592;9.634;2022-12-29T13:40:41;11.40;1.00
1602;DHT22;794;48.592;9.634;2022-12-29T13:43:11;11.80;1.00
1602;DHT22;794;48.592;9.634;2022-12-29T13:45:41;11.50;1.00
1602;DHT22;794;48.592;9.634;2022-12-29T13:48:14;11.10;1.00
1602;DHT22;794;48.592;9.634;2022-12-29T13:50:48;11.20;1.00
1602;DHT22;794;48.592;9.634;2022-12-29T13:53:22;11.30;1.00
1602;DHT22;794;48.592;9.634;2022-12-29T13:55:54;10.90;1.00
1602;DHT22;794;48.592;9.634;2022-12-29T13:58:27;11.20;1.00
1602;DHT22;794;48.592;9.634;2022-12-29T14:01:03;11.40;1.00
1602;DHT22;794;48.592;9.634;2022-12-29T14:03:44;11.10;1.00
1602;DHT22;794;48.592;9.634;2022-12-29T14:06:19;11.30;1.00
1602;DHT22;794;48.592;9.634;2022-12-29T14:08:48;11.50;1.00
1602;DHT22;794;48.592;9.634;2022-12-29T14:11:21;11.60;1.00
1602;DHT22;794;48.592;9.634;2022-12-29T14:13:50;11.10;1.00
1602;DHT22;794;48.592;9.634;2022-12-29T14:16:28;11.20;1.00
1602;DHT22;794;48.592;9.634;2022-12-29T14:19:03;11.30;1.00
1602;DHT22;794;48.592;9.634;2022-12-29T14:21:32;11.00;1.00
1602;DHT22;794;48.592;9.634;2022-12-29T14:30:06;11.20;1.00
1602;DHT22;794;48.592;9.634;2022-12-29T14:33:03;11.10;1.00
1602;DHT22;794;48.592;9.634;2022-12-29T14:35:41;11.30;1.00
1602;DHT22;794;48.592;9.634;2022-12-29T14:38:29;10.90;1.00
1602;DHT22;794;48.592;9.634;2022-12-29T14:41:17;11.80;1.00
1602;DHT22;794;48.592;9.634;2022-12-29T14:44:02;11.00;1.00
1602;DHT22;794;48.592;9.634;2022-12-29T14:46:44;11.00;1.00
1602;DHT22;794;48.592;9.634;2022-12-29T14:49:18;10.80;1.00
1602;DHT22;794;48.592;9.634;2022-12-29T14:51:46;11.10;1.00
1602;DHT22;794;48.592;9.634;2022-12-29T14:54:45;10.80;1.00
1602;DHT22;794;48.592;9.634;2022-12-29T15:00:17;10.60;1.00
1602;DHT22;794;48.592;9.634;2022-12-29T15:02:47;10.20;1.00
1602;DHT22;794;48.592;9.634;2022-12-29T15:05:26;10.80;1.00
1602;DHT22;794;48.592;9.634;2022-12-29T15:07:55;10.30;1.00
1602;DHT22;794;48.592;9.634;2022-12-29T15:10:24;10.20;1.00
1602;DHT22;794;48.592;9.634;2022-12-29T15:12:54;10.40;1.00
1602;DHT22;794;48.592;9.634;2022-12-29T15:15:23;10.00;1.00
1602;DHT22;794;48.592;9.634;2022-12-29T15:17:51;10.40;1.00
1602;DHT22;794;48.592;9.634;2022-12-29T15:20:25;10.10;1.00
1602;DHT22;794;48.592;9.634;2022-12-29T15:22:57;10.20;1.00
1602;DHT22;794;48.592;9.634;2022-12-29T15:25:25;9.70;1.00
1602;DHT22;794;48.592;9.634;2022-12-29T15:27:55;9.80;1.00
1602;DHT22;794;48.592;9.634;2022-12-29T15:30:23;9.30;1.00
1602;DHT22;794;48.592;9.634;2022-12-29T15:32:50;9.40;1.00
1602;DHT22;794;48.592;9.634;2022-12-29T15:35:29;9.40;1.00
1602;DHT22;794;48.592;9.634;2022-12-29T15:37:57;9.00;1.00
1602;DHT22;794;48.592;9.634;2022-12-29T15:40:26;8.80;1.00
1602;DHT22;794;48.592;9.634;2022-12-29T15:43:03;9.00;1.00
1602;DHT22;794;48.592;9.634;2022-12-29T15:45:34;8.60;1.00
1602;DHT22;794;48.592;9.634;2022-12-29T15:48:03;8.60;1.00
1602;DHT22;794;48.592;9.634;2022-12-29T15:50:33;8.80;1.00
1602;DHT22;794;48.592;9.634;2022-12-29T15:53:02;8.30;1.00
1602;DHT22;794;48.592;9.634;2022-12-29T15:55:32;8.40;1.00
1602;DHT22;794;48.592;9.634;2022-12-29T15:58:02;8.50;1.00
1602;DHT22;794;48.592;9.634;2022-12-29T16:00:31;7.70;1.00
1602;DHT22;794;48.592;9.634;2022-12-29T16:03:02;8.10;1.00
1602;DHT22;794;48.592;9.634;2022-12-29T16:05:36;7.70;1.00
1602;DHT22;794;48.592;9.634;2022-12-29T16:08:18;7.60;1.00
1602;DHT22;794;48.592;9.634;2022-12-29T16:10:47;8.00;1.00
1602;DHT22;794;48.592;9.634;2022-12-29T16:13:23;7.90;1.00
1602;DHT22;794;48.592;9.634;2022-12-29T16:15:56;7.70;1.00
1602;DHT22;794;48.592;9.634;2022-12-29T16:18:25;7.70;1.00
1602;DHT22;794;48.592;9.634;2022-12-29T16:20:55;7.80;1.00
1602;DHT22;794;48.592;9.634;2022-12-29T16:23:24;7.40;1.00
1602;DHT22;794;48.592;9.634;2022-12-29T16:25:54;7.50;1.00
1602;DHT22;794;48.592;9.634;2022-12-29T16:28:24;7.40;1.00
1602;DHT22;794;48.592;9.634;2022-12-29T16:30:59;7.60;1.00
1602;DHT22;794;48.592;9.634;2022-12-29T16:33:44;7.40;1.00
1602;DHT22;794;48.592;9.634;2022-12-29T16:36:27;7.40;1.00
1602;DHT22;794;48.592;9.634;2022-12-29T16:39:20;7.50;1.00
1602;DHT22;794;48.592;9.634;2022-12-29T16:41:48;7.10;1.00
1602;DHT22;794;48.592;9.634;2022-12-29T16:44:20;7.30;1.00
1602;DHT22;794;48.592;9.634;2022-12-29T16:47:15;7.50;1.00
1602;DHT22;794;48.592;9.634;2022-12-29T16:49:49;7.40;1.00
1602;DHT22;794;48.592;9.634;2022-12-29T16:52:20;7.30;1.00
1602;DHT22;794;48.592;9.634;2022-12-29T16:54:51;7.70;1.00
1602;DHT22;794;48.592;9.634;2022-12-29T16:57:28;7.50;1.00
1602;DHT22;794;48.592;9.634;2022-12-29T16:59:58;7.50;1.00
1602;DHT22;794;48.592;9.634;2022-12-29T17:02:27;7.50;1.00
1602;DHT22;794;48.592;9.634;2022-12-29T17:04:54;7.30;1.00
1602;DHT22;794;48.592;9.634;2022-12-29T17:07:24;7.40;1.00
1602;DHT22;794;48.592;9.634;2022-12-29T17:09:52;7.60;1.00
1602;DHT22;794;48.592;9.634;2022-12-29T17:12:21;7.60;1.00
1602;DHT22;794;48.592;9.634;2022-12-29T17:14:51;7.60;1.00
1602;DHT22;794;48.592;9.634;2022-12-29T17:17:21;8.00;1.00
1602;DHT22;794;48.592;9.634;2022-12-29T17:19:52;7.80;1.00
1602;DHT22;794;48.592;9.634;2022-12-29T17:22:23;7.80;1.00
1602;DHT22;794;48.592;9.634;2022-12-29T17:25:12;7.80;1.00
1602;DHT22;794;48.592;9.634;2022-12-29T17:27:42;7.60;1.00
1602;DHT22;794;48.592;9.634;2022-12-29T17:30:12;7.70;1.00
1602;DHT22;794;48.592;9.634;2022-12-29T17:32:40;7.80;1.00
1602;DHT22;794;48.592;9.634;2022-12-29T17:35:13;7.30;1.00